Historique des mesures à Cassis (13260), France
Quotidien Résumé Aout 19, 2017 Unités:  Métrique    US   Métrique/US
« Précédent (Jour)
Suivant (Jour) »
Quotidien Hebdomadaire Mensuel Annuel Période au choix
  Maximum: Minimum: Moyenne:
Température: TemperatureC °C 23.6 °C 25.1 °C
Point de rosée: DewpointC °C 0.9 °C 11.7 °C
Humidité: Humidity % 20 % 43 %
Vitesse du vent: 0 km/h 0 km/h 23.2 km/h
Rafales: 0 km/h - -
Vent:- - SSE
Pression: PressurehPa hPa 1009.4 hPa -
Précipitations: 0.0 mm    
Historical Graphs
 
 
Mesures pour : Aout 19, 2017
Heure Temperature Point de rosée Pression Vent Vitesse du vent Rafales Humidité Pluie (par heure) Conditions
TemperatureC °C DewpointC °C PressurehPa hPa Calm     Humidity % HourlyPrecipMM mm SoftwareType W/m2
00:11 25.4 °C 17.8 °C 1009.7 hPa NE 7.6 km/h 7.6 km/h 63 % 0.0 mm open2300-1.11 W/m2
01:11 25.2 °C 18.6 °C 1010.0 hPa Calm     67 % 0.0 mm open2300-1.11 W/m2
02:11 25.0 °C 18.7 °C 1010.0 hPa NNE 7.6 km/h 8.9 km/h 68 % 0.0 mm open2300-1.11 W/m2
03:11 25.3 °C 17.7 °C 1009.7 hPa WNW 6.4 km/h 6.4 km/h 63 % 0.0 mm open2300-1.11 W/m2
04:11 25.3 °C 17.5 °C 1009.7 hPa North 29.5 km/h 34.8 km/h 62 % 0.0 mm open2300-1.11 W/m2
05:11 24.8 °C 15.9 °C 1009.4 hPa NNE 10.9 km/h 15.6 km/h 58 % 0.0 mm open2300-1.11 W/m2
06:11 24.4 °C 15.3 °C 1009.7 hPa NW 29.5 km/h 29.5 km/h 57 % 0.0 mm open2300-1.11 W/m2
07:11 23.9 °C 15.1 °C 1010.4 hPa North 12.7 km/h 17.9 km/h 58 % 0.0 mm open2300-1.11 W/m2
08:11 24.6 °C 12.9 °C 1010.7 hPa NW 32.3 km/h 49.7 km/h 48 % 0.0 mm open2300-1.11 W/m2
09:11 23.6 °C 13.4 °C 1011.1 hPa NE 16.3 km/h 45.4 km/h 53 % 0.0 mm open2300-1.11 W/m2
10:11 24.0 °C 13.6 °C 1011.4 hPa North 30.1 km/h 30.1 km/h 52 % 0.0 mm open2300-1.11 W/m2
11:11 25.6 °C 14.4 °C 1010.7 hPa NW 31.4 km/h 31.4 km/h 50 % 0.0 mm open2300-1.11 W/m2
12:11 26.3 °C 14.1 °C 1010.4 hPa NNW 23.8 km/h 35.2 km/h 47 % 0.0 mm open2300-1.11 W/m2
13:11 26.6 °C 13.6 °C 1010.4 hPa NW 53.3 km/h 60.8 km/h 45 % 0.0 mm open2300-1.11 W/m2
14:11 26.9 °C 12.6 °C 1010.7 hPa NNW 20.3 km/h 47.3 km/h 41 % 0.0 mm open2300-1.11 W/m2
15:11 27.5 °C 11.9 °C 1010.4 hPa NW 30.7 km/h 36 km/h 38 % 0.0 mm open2300-1.11 W/m2
16:11 28.7 °C 10.7 °C 1010.4 hPa NNW 52 km/h 52 km/h 33 % 0.0 mm open2300-1.11 W/m2
17:11 29.1 °C 6.8 °C 1010.0 hPa NNE 22.5 km/h 57.3 km/h 25 % 0.0 mm open2300-1.11 W/m2
18:11 29.6 °C 7.8 °C 1009.7 hPa North 16.3 km/h 46.8 km/h 26 % 0.0 mm open2300-1.11 W/m2
19:11 29.1 °C 7.4 °C 1009.4 hPa WNW 31.9 km/h 59.1 km/h 26 % 0.0 mm open2300-1.11 W/m2
20:11 28.2 °C 6.1 °C 1009.4 hPa North 38.8 km/h 60.8 km/h 25 % 0.0 mm open2300-1.11 W/m2
21:11 26.9 °C 5.6 °C 1010.0 hPa NNW 34.1 km/h 47.3 km/h 26 % 0.0 mm open2300-1.11 W/m2
22:11 26.0 °C 3.1 °C 1010.7 hPa NNE 26.2 km/h 44.1 km/h 23 % 0.0 mm open2300-1.11 W/m2
23:11 25.5 °C 0.9 °C 1011.4 hPa NNE 16.3 km/h 33.6 km/h 20 % 0.0 mm open2300-1.11 W/m2
Observations météo à CASSIS
WU-History script by Weather Underground - 1 mb